UAL1675 KIAH-SKRG
Flight info
| Callsign | UAL1675 |
|---|---|
| Flight time | 4h 3m |
| Altitude | 35000 |
| Route | FLYZA5 KELPP A766 KEHLI UA766 SIGMA UM205 SPP DCT VUNIB UP530 REMUK DCT OPMEL OPMEL4A |
| Aircraft | B739/M-SDE2E3FGHIRWXY/LB1 |
Departure
| Time | 2026-04-21 19:13 |
|---|---|
| Airport | George Bush Intercontinental Airport (KIAH) |
Arrival
| Time | 2026-04-21 23:16 |
|---|---|
| Airport | Jose Maria Córdova International Airport (SKRG) |
| Time | Latitude | Longitude | Altitude | Speed | Heading |
|---|---|---|---|---|---|
| 2026-04-21 18:47 | 29.98900 | -95.34099 | 106 ft | 0 kts | 240° |
| 2026-04-21 19:03 | 29.98901 | -95.34096 | 106 ft | 2 kts | 240° |
| 2026-04-21 19:03 | 29.98910 | -95.34079 | 106 ft | 3 kts | 240° |
| 2026-04-21 19:03 | 29.98919 | -95.34058 | 106 ft | 3 kts | 256° |
| 2026-04-21 19:03 | 29.98921 | -95.34037 | 106 ft | 3 kts | 288° |
| 2026-04-21 19:04 | 29.98912 | -95.34020 | 106 ft | 3 kts | 336° |
| 2026-04-21 19:04 | 29.98899 | -95.34016 | 106 ft | 1 kts | 360° |
| 2026-04-21 19:04 | 29.98883 | -95.34016 | 105 ft | 3 kts | 360° |
| 2026-04-21 19:04 | 29.98876 | -95.34016 | 106 ft | 0 kts | 360° |
| 2026-04-21 19:08 | 29.98890 | -95.34016 | 106 ft | 6 kts | 0° |
| 2026-04-21 19:08 | 29.98967 | -95.34015 | 106 ft | 15 kts | 360° |
| 2026-04-21 19:08 | 29.99072 | -95.34057 | 106 ft | 17 kts | 306° |
| 2026-04-21 19:08 | 29.99086 | -95.34188 | 106 ft | 16 kts | 269° |
| 2026-04-21 19:09 | 29.99084 | -95.34334 | 106 ft | 21 kts | 271° |
| 2026-04-21 19:09 | 29.99086 | -95.34522 | 105 ft | 26 kts | 269° |
| 2026-04-21 19:09 | 29.99085 | -95.34738 | 106 ft | 27 kts | 268° |
| 2026-04-21 19:09 | 29.99087 | -95.34948 | 106 ft | 25 kts | 273° |
| 2026-04-21 19:10 | 29.99091 | -95.35145 | 106 ft | 24 kts | 269° |
| 2026-04-21 19:10 | 29.99091 | -95.35328 | 106 ft | 23 kts | 271° |
| 2026-04-21 19:10 | 29.99065 | -95.35477 | 105 ft | 17 kts | 209° |
| 2026-04-21 19:10 | 29.98951 | -95.35488 | 106 ft | 16 kts | 186° |
| 2026-04-21 19:11 | 29.98876 | -95.35575 | 106 ft | 16 kts | 242° |
| 2026-04-21 19:11 | 29.98826 | -95.35684 | 106 ft | 15 kts | 242° |
| 2026-04-21 19:11 | 29.98790 | -95.35760 | 108 ft | 2 kts | 234° |
| 2026-04-21 19:11 | 29.98767 | -95.35767 | 108 ft | 6 kts | 176° |
| 2026-04-21 19:12 | 29.98699 | -95.35731 | 107 ft | 23 kts | 151° |
| 2026-04-21 19:12 | 29.98358 | -95.35525 | 105 ft | 87 kts | 152° |
| 2026-04-21 19:12 | 29.97658 | -95.35097 | 107 ft | 139 kts | 152° |
| 2026-04-21 19:12 | 29.96674 | -95.34493 | 131 ft | 177 kts | 153° |
| 2026-04-21 19:13 | 29.95570 | -95.33885 | 731 ft | 171 kts | 156° |
| 2026-04-21 19:13 | 29.94617 | -95.33037 | 1022 ft | 187 kts | 119° |
| 2026-04-21 19:13 | 29.93969 | -95.31700 | 1489 ft | 195 kts | 122° |
| 2026-04-21 19:13 | 29.93176 | -95.30382 | 1892 ft | 207 kts | 124° |
| 2026-04-21 19:14 | 29.92278 | -95.28983 | 2061 ft | 226 kts | 125° |
| 2026-04-21 19:14 | 29.91300 | -95.27512 | 2450 ft | 234 kts | 126° |
| 2026-04-21 19:14 | 29.90259 | -95.25969 | 2777 ft | 251 kts | 127° |
| 2026-04-21 19:14 | 29.89186 | -95.24401 | 3600 ft | 245 kts | 128° |
| 2026-04-21 19:15 | 29.88151 | -95.22825 | 4263 ft | 249 kts | 126° |
| 2026-04-21 19:15 | 29.87145 | -95.21200 | 4848 ft | 254 kts | 126° |
| 2026-04-21 19:15 | 29.86118 | -95.19530 | 5464 ft | 257 kts | 127° |
| 2026-04-21 19:15 | 29.85074 | -95.17845 | 6094 ft | 259 kts | 127° |
| 2026-04-21 19:16 | 29.84010 | -95.16137 | 6674 ft | 264 kts | 128° |
| 2026-04-21 19:16 | 29.82928 | -95.14405 | 7239 ft | 268 kts | 128° |
| 2026-04-21 19:16 | 29.81696 | -95.12781 | 7760 ft | 271 kts | 143° |
| 2026-04-21 19:16 | 29.80169 | -95.11490 | 8332 ft | 274 kts | 145° |
| 2026-04-21 19:17 | 29.77072 | -95.08826 | 9425 ft | 281 kts | 144° |
| 2026-04-21 19:17 | 29.75498 | -95.07460 | 9915 ft | 287 kts | 147° |
| 2026-04-21 19:17 | 29.73728 | -95.06369 | 10259 ft | 296 kts | 162° |
| 2026-04-21 19:18 | 29.71728 | -95.05570 | 10395 ft | 313 kts | 163° |
| 2026-04-21 19:18 | 29.69611 | -95.04732 | 10530 ft | 330 kts | 163° |
| 2026-04-21 19:18 | 29.67388 | -95.03829 | 10654 ft | 348 kts | 162° |
| 2026-04-21 19:18 | 29.65107 | -95.02875 | 10926 ft | 358 kts | 162° |
| 2026-04-21 19:19 | 29.62750 | -95.01880 | 11381 ft | 363 kts | 163° |
| 2026-04-21 19:19 | 29.60368 | -95.00872 | 11901 ft | 365 kts | 163° |
| 2026-04-21 19:19 | 29.57971 | -94.99857 | 12380 ft | 369 kts | 163° |
| 2026-04-21 19:19 | 29.55553 | -94.98836 | 12857 ft | 372 kts | 163° |
| 2026-04-21 19:20 | 29.53111 | -94.97803 | 13334 ft | 376 kts | 163° |
| 2026-04-21 19:20 | 29.50643 | -94.96762 | 13834 ft | 379 kts | 163° |
| 2026-04-21 19:20 | 29.48149 | -94.95710 | 14340 ft | 382 kts | 163° |
| 2026-04-21 19:20 | 29.45643 | -94.94654 | 14851 ft | 385 kts | 164° |
| 2026-04-21 19:21 | 29.43115 | -94.93588 | 15364 ft | 388 kts | 164° |
| 2026-04-21 19:21 | 29.40563 | -94.92514 | 15842 ft | 393 kts | 164° |
| 2026-04-21 19:21 | 29.37990 | -94.91433 | 16336 ft | 395 kts | 164° |
| 2026-04-21 19:21 | 29.35395 | -94.90337 | 16812 ft | 399 kts | 164° |
| 2026-04-21 19:22 | 29.32781 | -94.89236 | 17267 ft | 402 kts | 164° |
| 2026-04-21 19:22 | 29.30146 | -94.88127 | 17716 ft | 405 kts | 164° |
| 2026-04-21 19:22 | 29.27531 | -94.86860 | 18114 ft | 415 kts | 152° |
| 2026-04-21 19:22 | 29.25326 | -94.84672 | 18511 ft | 426 kts | 133° |
| 2026-04-21 19:23 | 29.23451 | -94.82020 | 18999 ft | 429 kts | 131° |
| 2026-04-21 19:23 | 29.21604 | -94.79317 | 19346 ft | 434 kts | 131° |
| 2026-04-21 19:23 | 29.19747 | -94.76576 | 19725 ft | 437 kts | 131° |
| 2026-04-21 19:23 | 29.17901 | -94.73860 | 20108 ft | 439 kts | 131° |
| 2026-04-21 19:24 | 29.15988 | -94.71065 | 20545 ft | 442 kts | 131° |
| 2026-04-21 19:24 | 29.14103 | -94.68331 | 20933 ft | 445 kts | 131° |
| 2026-04-21 19:24 | 29.12173 | -94.65545 | 21284 ft | 448 kts | 131° |
| 2026-04-21 19:24 | 29.10226 | -94.62745 | 21649 ft | 450 kts | 131° |
| 2026-04-21 19:25 | 29.08267 | -94.59932 | 22004 ft | 453 kts | 131° |
| 2026-04-21 19:25 | 29.06297 | -94.57108 | 22351 ft | 455 kts | 131° |
| 2026-04-21 19:25 | 29.04318 | -94.54272 | 22681 ft | 458 kts | 132° |
| 2026-04-21 19:25 | 29.02318 | -94.51409 | 22971 ft | 461 kts | 132° |
| 2026-04-21 19:26 | 29.00330 | -94.48566 | 23247 ft | 464 kts | 132° |
| 2026-04-21 19:26 | 28.98311 | -94.45678 | 23565 ft | 466 kts | 132° |
| 2026-04-21 19:26 | 28.96283 | -94.42780 | 23872 ft | 468 kts | 132° |
| 2026-04-21 19:26 | 28.94241 | -94.39864 | 24137 ft | 471 kts | 132° |
| 2026-04-21 19:27 | 28.92189 | -94.36938 | 24404 ft | 473 kts | 132° |
| 2026-04-21 19:27 | 28.90123 | -94.33992 | 24667 ft | 476 kts | 132° |
| 2026-04-21 19:27 | 28.88046 | -94.31032 | 24913 ft | 479 kts | 132° |
| 2026-04-21 19:27 | 28.85953 | -94.28051 | 25164 ft | 482 kts | 132° |
| 2026-04-21 19:28 | 28.83857 | -94.25067 | 25437 ft | 484 kts | 132° |
| 2026-04-21 19:28 | 28.81743 | -94.22059 | 25666 ft | 487 kts | 132° |
| 2026-04-21 19:28 | 28.79614 | -94.19031 | 25881 ft | 490 kts | 132° |
| 2026-04-21 19:28 | 28.77479 | -94.15999 | 26138 ft | 492 kts | 132° |
| 2026-04-21 19:29 | 28.75329 | -94.12948 | 26393 ft | 494 kts | 132° |
| 2026-04-21 19:29 | 28.73168 | -94.09886 | 26589 ft | 498 kts | 132° |
| 2026-04-21 19:29 | 28.70989 | -94.06800 | 26798 ft | 500 kts | 132° |
| 2026-04-21 19:29 | 28.68803 | -94.03706 | 27037 ft | 502 kts | 132° |
| 2026-04-21 19:30 | 28.66635 | -94.00639 | 27249 ft | 504 kts | 132° |
| 2026-04-21 19:30 | 28.64431 | -93.97520 | 27477 ft | 506 kts | 131° |
| 2026-04-21 19:30 | 28.62218 | -93.94393 | 27714 ft | 508 kts | 132° |
| 2026-04-21 19:30 | 28.59997 | -93.91259 | 27927 ft | 510 kts | 132° |
| 2026-04-21 19:31 | 28.57762 | -93.88107 | 28124 ft | 512 kts | 132° |
| 2026-04-21 19:31 | 28.55524 | -93.84951 | 28324 ft | 514 kts | 132° |
| 2026-04-21 19:31 | 28.53270 | -93.81778 | 28516 ft | 516 kts | 132° |
| 2026-04-21 19:31 | 28.51003 | -93.78587 | 28727 ft | 518 kts | 132° |
| 2026-04-21 19:32 | 28.48737 | -93.75400 | 29008 ft | 518 kts | 132° |
| 2026-04-21 19:32 | 28.46468 | -93.72210 | 29314 ft | 517 kts | 132° |
| 2026-04-21 19:32 | 28.44228 | -93.69065 | 29615 ft | 517 kts | 132° |
| 2026-04-21 19:32 | 28.41964 | -93.65887 | 29865 ft | 518 kts | 132° |
| 2026-04-21 19:33 | 28.40430 | -93.63738 | 30033 ft | 519 kts | 132° |
| 2026-04-21 19:33 | 28.37424 | -93.59524 | 30406 ft | 518 kts | 132° |
| 2026-04-21 19:33 | 28.35151 | -93.56341 | 30713 ft | 517 kts | 132° |
| 2026-04-21 19:33 | 28.32883 | -93.53169 | 31004 ft | 517 kts | 132° |
| 2026-04-21 19:34 | 28.30613 | -93.49996 | 31296 ft | 517 kts | 132° |
| 2026-04-21 19:34 | 28.28342 | -93.46825 | 31609 ft | 516 kts | 133° |
| 2026-04-21 19:34 | 28.26079 | -93.43668 | 31896 ft | 516 kts | 133° |
| 2026-04-21 19:34 | 28.23814 | -93.40509 | 32165 ft | 516 kts | 133° |
| 2026-04-21 19:35 | 28.21573 | -93.37386 | 32430 ft | 516 kts | 133° |
| 2026-04-21 19:35 | 28.17038 | -93.31072 | 32899 ft | 516 kts | 133° |
| 2026-04-21 19:35 | 28.14769 | -93.27916 | 33177 ft | 515 kts | 133° |
| 2026-04-21 19:36 | 28.12512 | -93.24779 | 33471 ft | 513 kts | 133° |
| 2026-04-21 19:36 | 28.11015 | -93.22699 | 33641 ft | 513 kts | 133° |
| 2026-04-21 19:36 | 28.08757 | -93.19565 | 33837 ft | 513 kts | 133° |
| 2026-04-21 19:36 | 28.06497 | -93.16433 | 34011 ft | 514 kts | 133° |
| 2026-04-21 19:37 | 28.04233 | -93.13297 | 34197 ft | 514 kts | 133° |
| 2026-04-21 19:37 | 28.01970 | -93.10162 | 34428 ft | 513 kts | 133° |
| 2026-04-21 19:37 | 27.99716 | -93.07041 | 34683 ft | 512 kts | 133° |
| 2026-04-21 19:37 | 27.97464 | -93.03927 | 34896 ft | 511 kts | 133° |
| 2026-04-21 19:38 | 27.95206 | -93.00808 | 34938 ft | 513 kts | 133° |
| 2026-04-21 19:38 | 27.90676 | -92.94557 | 34946 ft | 513 kts | 133° |
| 2026-04-21 19:39 | 27.86166 | -92.88338 | 34944 ft | 510 kts | 133° |
| 2026-04-21 19:39 | 27.81667 | -92.82148 | 34947 ft | 508 kts | 134° |
| 2026-04-21 19:40 | 27.77218 | -92.76032 | 34943 ft | 506 kts | 134° |
| 2026-04-21 19:40 | 27.72749 | -92.69901 | 34948 ft | 505 kts | 134° |
| 2026-04-21 19:41 | 27.68276 | -92.63768 | 34919 ft | 506 kts | 134° |
| 2026-04-21 19:41 | 27.63782 | -92.57621 | 35036 ft | 510 kts | 134° |
| 2026-04-21 19:41 | 27.61528 | -92.54539 | 35193 ft | 508 kts | 134° |
| 2026-04-21 19:42 | 27.59271 | -92.51456 | 35209 ft | 510 kts | 134° |
| 2026-04-21 19:42 | 27.54746 | -92.45282 | 35223 ft | 510 kts | 134° |
| 2026-04-21 19:43 | 27.50223 | -92.39116 | 35218 ft | 509 kts | 134° |
| 2026-04-21 19:43 | 27.45740 | -92.33016 | 35219 ft | 508 kts | 134° |
| 2026-04-21 19:44 | 27.41228 | -92.26883 | 35224 ft | 507 kts | 134° |
| 2026-04-21 19:44 | 27.36724 | -92.20772 | 35231 ft | 507 kts | 134° |
| 2026-04-21 19:45 | 27.32216 | -92.14663 | 35225 ft | 507 kts | 134° |
| 2026-04-21 19:45 | 27.27711 | -92.08564 | 35219 ft | 507 kts | 134° |
| 2026-04-21 19:46 | 27.23194 | -92.02457 | 35223 ft | 507 kts | 134° |
| 2026-04-21 19:46 | 27.18700 | -91.96390 | 35223 ft | 508 kts | 134° |
| 2026-04-21 19:46 | 27.16270 | -91.93546 | 35205 ft | 501 kts | 147° |
| 2026-04-21 19:47 | 27.13506 | -91.91201 | 35258 ft | 497 kts | 150° |
| 2026-04-21 19:47 | 27.07794 | -91.86785 | 35237 ft | 498 kts | 152° |
| 2026-04-21 19:48 | 27.02066 | -91.82364 | 35229 ft | 501 kts | 151° |
| 2026-04-21 19:48 | 26.96354 | -91.77841 | 35234 ft | 503 kts | 150° |
| 2026-04-21 19:49 | 26.90699 | -91.73296 | 35229 ft | 504 kts | 150° |
| 2026-04-21 19:49 | 26.84998 | -91.68714 | 35218 ft | 504 kts | 150° |
| 2026-04-21 19:50 | 26.79294 | -91.64141 | 35222 ft | 504 kts | 150° |
| 2026-04-21 19:50 | 26.73594 | -91.59582 | 35219 ft | 503 kts | 150° |
| 2026-04-21 19:51 | 26.67893 | -91.55028 | 35220 ft | 503 kts | 150° |
| 2026-04-21 19:51 | 26.62200 | -91.50487 | 35215 ft | 502 kts | 150° |
| 2026-04-21 19:52 | 26.56516 | -91.45958 | 35209 ft | 502 kts | 150° |
| 2026-04-21 19:52 | 26.50832 | -91.41436 | 35210 ft | 501 kts | 150° |
| 2026-04-21 19:53 | 26.45154 | -91.36927 | 35215 ft | 500 kts | 150° |
| 2026-04-21 19:53 | 26.39481 | -91.32427 | 35211 ft | 500 kts | 150° |
| 2026-04-21 19:54 | 26.33852 | -91.27964 | 35211 ft | 499 kts | 150° |
| 2026-04-21 19:54 | 26.28188 | -91.23478 | 35212 ft | 499 kts | 150° |
| 2026-04-21 19:55 | 26.22521 | -91.18996 | 35215 ft | 500 kts | 150° |
| 2026-04-21 19:55 | 26.16843 | -91.14513 | 35213 ft | 501 kts | 151° |
| 2026-04-21 19:56 | 26.11150 | -91.10024 | 35213 ft | 502 kts | 150° |
| 2026-04-21 19:56 | 26.05447 | -91.05530 | 35211 ft | 503 kts | 150° |
| 2026-04-21 19:57 | 25.99733 | -91.01033 | 35212 ft | 503 kts | 151° |
| 2026-04-21 19:57 | 25.94011 | -90.96535 | 35214 ft | 503 kts | 151° |
| 2026-04-21 19:58 | 25.88294 | -90.92045 | 35209 ft | 503 kts | 151° |
| 2026-04-21 19:58 | 25.82587 | -90.87570 | 35209 ft | 502 kts | 151° |
| 2026-04-21 19:59 | 25.76876 | -90.83099 | 35213 ft | 502 kts | 151° |
| 2026-04-21 19:59 | 25.71211 | -90.78666 | 35213 ft | 501 kts | 151° |
| 2026-04-21 20:00 | 25.65510 | -90.74214 | 35211 ft | 501 kts | 151° |
| 2026-04-21 20:00 | 25.59804 | -90.69761 | 35201 ft | 501 kts | 151° |
| 2026-04-21 20:01 | 25.54096 | -90.65313 | 35206 ft | 501 kts | 151° |
| 2026-04-21 20:01 | 25.48389 | -90.60871 | 35201 ft | 502 kts | 151° |
| 2026-04-21 20:02 | 25.42676 | -90.56428 | 35204 ft | 501 kts | 151° |
| 2026-04-21 20:02 | 25.36967 | -90.51994 | 35203 ft | 501 kts | 151° |
| 2026-04-21 20:03 | 25.31255 | -90.47566 | 35199 ft | 501 kts | 151° |
| 2026-04-21 20:03 | 25.25578 | -90.43167 | 35193 ft | 501 kts | 151° |
| 2026-04-21 20:04 | 25.19864 | -90.38743 | 35196 ft | 501 kts | 151° |
| 2026-04-21 20:04 | 25.14154 | -90.34327 | 35193 ft | 501 kts | 151° |
| 2026-04-21 20:05 | 25.08444 | -90.29918 | 35199 ft | 500 kts | 151° |
| 2026-04-21 20:05 | 25.02737 | -90.25516 | 35192 ft | 500 kts | 151° |
| 2026-04-21 20:06 | 24.97030 | -90.21120 | 35183 ft | 500 kts | 151° |
| 2026-04-21 20:06 | 24.91323 | -90.16732 | 35177 ft | 500 kts | 151° |
| 2026-04-21 20:07 | 24.85651 | -90.12371 | 35175 ft | 500 kts | 151° |
| 2026-04-21 20:07 | 24.79935 | -90.07985 | 35175 ft | 500 kts | 151° |
| 2026-04-21 20:08 | 24.74226 | -90.03605 | 35166 ft | 500 kts | 151° |
| 2026-04-21 20:08 | 24.68516 | -89.99227 | 35172 ft | 500 kts | 151° |
| 2026-04-21 20:09 | 24.62804 | -89.94856 | 35173 ft | 500 kts | 151° |
| 2026-04-21 20:09 | 24.57140 | -89.90524 | 35168 ft | 500 kts | 151° |
| 2026-04-21 20:10 | 24.51426 | -89.86161 | 35169 ft | 500 kts | 151° |
| 2026-04-21 20:10 | 24.45720 | -89.81811 | 35165 ft | 499 kts | 152° |
| 2026-04-21 20:11 | 24.40008 | -89.77470 | 35163 ft | 499 kts | 152° |
| 2026-04-21 20:11 | 24.34288 | -89.73124 | 35156 ft | 500 kts | 152° |
| 2026-04-21 20:12 | 24.28568 | -89.68777 | 35158 ft | 500 kts | 152° |
| 2026-04-21 20:12 | 24.23820 | -89.65170 | 35159 ft | 500 kts | 152° |
| 2026-04-21 20:13 | 24.17155 | -89.60118 | 35148 ft | 500 kts | 152° |
| 2026-04-21 20:13 | 24.11427 | -89.55782 | 35147 ft | 500 kts | 152° |
| 2026-04-21 20:14 | 24.05687 | -89.51438 | 35146 ft | 500 kts | 152° |
| 2026-04-21 20:14 | 23.99997 | -89.47136 | 35136 ft | 500 kts | 152° |
| 2026-04-21 20:15 | 23.94276 | -89.42814 | 35144 ft | 499 kts | 152° |
| 2026-04-21 20:15 | 23.88560 | -89.38503 | 35137 ft | 499 kts | 152° |
| 2026-04-21 20:16 | 23.82848 | -89.34185 | 35129 ft | 499 kts | 152° |
| 2026-04-21 20:16 | 23.77164 | -89.29892 | 35129 ft | 499 kts | 152° |
| 2026-04-21 20:17 | 23.71452 | -89.25579 | 35131 ft | 499 kts | 152° |
| 2026-04-21 20:17 | 23.65739 | -89.21274 | 35123 ft | 499 kts | 152° |
| 2026-04-21 20:18 | 23.60989 | -89.17697 | 35119 ft | 499 kts | 152° |
| 2026-04-21 20:18 | 23.54317 | -89.12673 | 35121 ft | 498 kts | 152° |
| 2026-04-21 20:19 | 23.48612 | -89.08389 | 35116 ft | 498 kts | 152° |
| 2026-04-21 20:19 | 23.42894 | -89.04115 | 35110 ft | 498 kts | 152° |
| 2026-04-21 20:20 | 23.37177 | -88.99849 | 35112 ft | 497 kts | 152° |
| 2026-04-21 20:20 | 23.31466 | -88.95589 | 35112 ft | 497 kts | 152° |
| 2026-04-21 20:21 | 23.25790 | -88.91352 | 35102 ft | 497 kts | 152° |
| 2026-04-21 20:21 | 23.20081 | -88.87098 | 35102 ft | 497 kts | 152° |
| 2026-04-21 20:22 | 23.14376 | -88.82850 | 35105 ft | 497 kts | 152° |
| 2026-04-21 20:22 | 23.05808 | -88.76481 | 35101 ft | 497 kts | 152° |
| 2026-04-21 20:23 | 23.01065 | -88.72968 | 35096 ft | 497 kts | 152° |
| 2026-04-21 20:23 | 22.94428 | -88.68053 | 35095 ft | 497 kts | 152° |
| 2026-04-21 20:24 | 22.89647 | -88.64514 | 35089 ft | 496 kts | 152° |
| 2026-04-21 20:24 | 22.83987 | -88.60325 | 35097 ft | 495 kts | 152° |
| 2026-04-21 20:25 | 22.78291 | -88.56115 | 35080 ft | 495 kts | 152° |
| 2026-04-21 20:25 | 22.72584 | -88.51910 | 35093 ft | 494 kts | 152° |
| 2026-04-21 20:26 | 22.66893 | -88.47722 | 35089 ft | 494 kts | 152° |
| 2026-04-21 20:26 | 22.61209 | -88.43527 | 35081 ft | 494 kts | 152° |
| 2026-04-21 20:27 | 22.55561 | -88.39358 | 35099 ft | 493 kts | 152° |
| 2026-04-21 20:27 | 22.49870 | -88.35166 | 35108 ft | 494 kts | 152° |
| 2026-04-21 20:28 | 22.44217 | -88.31003 | 35088 ft | 494 kts | 152° |
| 2026-04-21 20:28 | 22.38533 | -88.26819 | 35082 ft | 494 kts | 152° |
| 2026-04-21 20:29 | 22.32857 | -88.22643 | 35096 ft | 493 kts | 152° |
| 2026-04-21 20:29 | 22.27187 | -88.18474 | 35090 ft | 493 kts | 152° |
| 2026-04-21 20:30 | 22.21518 | -88.14312 | 35098 ft | 492 kts | 152° |
| 2026-04-21 20:30 | 22.15854 | -88.10162 | 35095 ft | 492 kts | 152° |
| 2026-04-21 20:31 | 22.10189 | -88.06031 | 35092 ft | 491 kts | 152° |
| 2026-04-21 20:31 | 22.04563 | -88.01932 | 35096 ft | 491 kts | 152° |
| 2026-04-21 20:32 | 21.98896 | -87.97802 | 35093 ft | 491 kts | 152° |
| 2026-04-21 20:32 | 21.93241 | -87.93681 | 35093 ft | 491 kts | 152° |
| 2026-04-21 20:33 | 21.87580 | -87.89561 | 35087 ft | 491 kts | 152° |
| 2026-04-21 20:33 | 21.81909 | -87.85442 | 35097 ft | 491 kts | 152° |
| 2026-04-21 20:34 | 21.76241 | -87.81323 | 35095 ft | 491 kts | 152° |
| 2026-04-21 20:34 | 21.70562 | -87.77209 | 35090 ft | 492 kts | 152° |
| 2026-04-21 20:35 | 21.64881 | -87.73094 | 35083 ft | 492 kts | 152° |
| 2026-04-21 20:35 | 21.59239 | -87.69009 | 35093 ft | 493 kts | 152° |
| 2026-04-21 20:36 | 21.53556 | -87.64893 | 35098 ft | 492 kts | 152° |
| 2026-04-21 20:36 | 21.47871 | -87.60785 | 35097 ft | 492 kts | 152° |
| 2026-04-21 20:37 | 21.42183 | -87.56684 | 35085 ft | 492 kts | 152° |
| 2026-04-21 20:37 | 21.36494 | -87.52577 | 35095 ft | 492 kts | 152° |
| 2026-04-21 20:38 | 21.30808 | -87.48474 | 35088 ft | 492 kts | 152° |
| 2026-04-21 20:38 | 21.25128 | -87.44381 | 35099 ft | 492 kts | 152° |
| 2026-04-21 20:39 | 21.19476 | -87.40312 | 35097 ft | 492 kts | 152° |
| 2026-04-21 20:39 | 21.13798 | -87.36225 | 35082 ft | 491 kts | 152° |
| 2026-04-21 20:40 | 21.08126 | -87.32145 | 35097 ft | 490 kts | 152° |
| 2026-04-21 20:40 | 21.02468 | -87.28081 | 35105 ft | 489 kts | 152° |
| 2026-04-21 20:41 | 20.96813 | -87.24021 | 35098 ft | 489 kts | 152° |
| 2026-04-21 20:41 | 20.91194 | -87.20000 | 35097 ft | 489 kts | 152° |
| 2026-04-21 20:42 | 20.85519 | -87.15959 | 35097 ft | 489 kts | 152° |
| 2026-04-21 20:42 | 20.79850 | -87.11925 | 35087 ft | 489 kts | 152° |
| 2026-04-21 20:43 | 20.74186 | -87.07895 | 35104 ft | 489 kts | 152° |
| 2026-04-21 20:43 | 20.68544 | -87.03880 | 35077 ft | 489 kts | 152° |
| 2026-04-21 20:44 | 20.62884 | -86.99855 | 35096 ft | 489 kts | 152° |
| 2026-04-21 20:44 | 20.57220 | -86.95831 | 35087 ft | 489 kts | 152° |
| 2026-04-21 20:45 | 20.51556 | -86.91812 | 35097 ft | 488 kts | 152° |
| 2026-04-21 20:45 | 20.45786 | -86.88038 | 35096 ft | 485 kts | 156° |
| 2026-04-21 20:46 | 20.39917 | -86.84486 | 35089 ft | 484 kts | 156° |
| 2026-04-21 20:46 | 20.34058 | -86.80917 | 35089 ft | 485 kts | 155° |
| 2026-04-21 20:47 | 20.28260 | -86.77340 | 35100 ft | 485 kts | 155° |
| 2026-04-21 20:47 | 20.22410 | -86.73724 | 35099 ft | 486 kts | 155° |
| 2026-04-21 20:48 | 20.16555 | -86.70109 | 35098 ft | 486 kts | 155° |
| 2026-04-21 20:48 | 20.10686 | -86.66506 | 35089 ft | 486 kts | 155° |
| 2026-04-21 20:49 | 20.04814 | -86.62931 | 35095 ft | 486 kts | 155° |
| 2026-04-21 20:49 | 19.98942 | -86.59354 | 35099 ft | 486 kts | 155° |
| 2026-04-21 20:50 | 19.93095 | -86.55793 | 35080 ft | 487 kts | 155° |
| 2026-04-21 20:50 | 19.87175 | -86.52190 | 35096 ft | 487 kts | 155° |
| 2026-04-21 20:51 | 19.81334 | -86.48633 | 35097 ft | 486 kts | 155° |
| 2026-04-21 20:51 | 19.75461 | -86.45062 | 35078 ft | 486 kts | 155° |
| 2026-04-21 20:52 | 19.69602 | -86.41502 | 35096 ft | 485 kts | 155° |
| 2026-04-21 20:52 | 19.63735 | -86.37939 | 35088 ft | 485 kts | 155° |
| 2026-04-21 20:53 | 19.57954 | -86.34237 | 35098 ft | 486 kts | 152° |
| 2026-04-21 20:53 | 19.52292 | -86.30289 | 35077 ft | 487 kts | 151° |
| 2026-04-21 20:54 | 19.46687 | -86.26344 | 35086 ft | 486 kts | 151° |
| 2026-04-21 20:54 | 19.41039 | -86.22412 | 35082 ft | 485 kts | 152° |
| 2026-04-21 20:55 | 19.35378 | -86.18496 | 35081 ft | 486 kts | 152° |
| 2026-04-21 20:55 | 19.29719 | -86.14590 | 35087 ft | 486 kts | 152° |
| 2026-04-21 20:56 | 19.24055 | -86.10686 | 35087 ft | 485 kts | 151° |
| 2026-04-21 20:56 | 19.18398 | -86.06785 | 35087 ft | 485 kts | 151° |
| 2026-04-21 20:57 | 19.12738 | -86.02888 | 35083 ft | 485 kts | 151° |
| 2026-04-21 20:57 | 19.07081 | -85.98995 | 35083 ft | 485 kts | 151° |
| 2026-04-21 20:58 | 19.01421 | -85.95104 | 35067 ft | 485 kts | 151° |
| 2026-04-21 20:58 | 18.95764 | -85.91222 | 35076 ft | 485 kts | 151° |
| 2026-04-21 20:59 | 18.90105 | -85.87335 | 35071 ft | 485 kts | 151° |
| 2026-04-21 20:59 | 18.84484 | -85.83478 | 35077 ft | 485 kts | 151° |
| 2026-04-21 21:00 | 18.78828 | -85.79600 | 35075 ft | 485 kts | 151° |
| 2026-04-21 21:00 | 18.73164 | -85.75724 | 35077 ft | 485 kts | 151° |
| 2026-04-21 21:01 | 18.67503 | -85.71849 | 35059 ft | 485 kts | 151° |
| 2026-04-21 21:01 | 18.61837 | -85.67973 | 35061 ft | 485 kts | 150° |
| 2026-04-21 21:02 | 18.56213 | -85.64130 | 35052 ft | 485 kts | 151° |
| 2026-04-21 21:02 | 18.50552 | -85.60264 | 35059 ft | 484 kts | 151° |
| 2026-04-21 21:03 | 18.44887 | -85.56401 | 35055 ft | 484 kts | 150° |
| 2026-04-21 21:03 | 18.39234 | -85.52550 | 35055 ft | 483 kts | 150° |
| 2026-04-21 21:04 | 18.33584 | -85.48701 | 35057 ft | 483 kts | 150° |
| 2026-04-21 21:04 | 18.27973 | -85.44884 | 35051 ft | 483 kts | 151° |
| 2026-04-21 21:05 | 18.22329 | -85.41052 | 35056 ft | 482 kts | 151° |
| 2026-04-21 21:05 | 18.16691 | -85.37224 | 35049 ft | 482 kts | 151° |
| 2026-04-21 21:06 | 18.11055 | -85.33394 | 35045 ft | 482 kts | 150° |
| 2026-04-21 21:06 | 18.05415 | -85.29563 | 35041 ft | 483 kts | 150° |
| 2026-04-21 21:07 | 17.99774 | -85.25737 | 35031 ft | 483 kts | 151° |
| 2026-04-21 21:07 | 17.94128 | -85.21916 | 35037 ft | 483 kts | 150° |
| 2026-04-21 21:08 | 17.88482 | -85.18101 | 35025 ft | 483 kts | 150° |
| 2026-04-21 21:08 | 17.82836 | -85.14280 | 35026 ft | 483 kts | 150° |
| 2026-04-21 21:09 | 17.77195 | -85.10467 | 35026 ft | 483 kts | 150° |
| 2026-04-21 21:09 | 17.71552 | -85.06657 | 35041 ft | 482 kts | 150° |
| 2026-04-21 21:10 | 17.65950 | -85.02878 | 35036 ft | 482 kts | 150° |
| 2026-04-21 21:10 | 17.60313 | -84.99076 | 35038 ft | 482 kts | 150° |
| 2026-04-21 21:11 | 17.54668 | -84.95273 | 35038 ft | 482 kts | 150° |
| 2026-04-21 21:11 | 17.49028 | -84.91472 | 35031 ft | 482 kts | 150° |
| 2026-04-21 21:12 | 17.44300 | -84.88294 | 35026 ft | 482 kts | 150° |
| 2026-04-21 21:12 | 17.38658 | -84.84504 | 35029 ft | 481 kts | 150° |
| 2026-04-21 21:13 | 17.33057 | -84.80741 | 35027 ft | 481 kts | 150° |
| 2026-04-21 21:13 | 17.27420 | -84.76960 | 35026 ft | 480 kts | 150° |
| 2026-04-21 21:14 | 17.21793 | -84.73184 | 35029 ft | 480 kts | 150° |
| 2026-04-21 21:14 | 17.16169 | -84.69411 | 35030 ft | 480 kts | 150° |
| 2026-04-21 21:15 | 17.10541 | -84.65643 | 35026 ft | 480 kts | 150° |
| 2026-04-21 21:15 | 17.04920 | -84.61879 | 35027 ft | 479 kts | 150° |
| 2026-04-21 21:16 | 16.99300 | -84.58122 | 35025 ft | 480 kts | 150° |
| 2026-04-21 21:16 | 16.93677 | -84.54366 | 35034 ft | 480 kts | 150° |
| 2026-04-21 21:17 | 16.88094 | -84.50637 | 35026 ft | 479 kts | 150° |
| 2026-04-21 21:17 | 16.82478 | -84.46888 | 35027 ft | 479 kts | 150° |
| 2026-04-21 21:18 | 16.76867 | -84.43145 | 35027 ft | 478 kts | 150° |
| 2026-04-21 21:18 | 16.71251 | -84.39402 | 35030 ft | 478 kts | 150° |
| 2026-04-21 21:19 | 16.65642 | -84.35666 | 35027 ft | 478 kts | 150° |
| 2026-04-21 21:19 | 16.60047 | -84.31941 | 35030 ft | 477 kts | 150° |
| 2026-04-21 21:20 | 16.54455 | -84.28219 | 35030 ft | 477 kts | 149° |
| 2026-04-21 21:20 | 16.48900 | -84.24524 | 35019 ft | 477 kts | 149° |
| 2026-04-21 21:21 | 16.43311 | -84.20813 | 35018 ft | 476 kts | 149° |
| 2026-04-21 21:21 | 16.37724 | -84.17107 | 35011 ft | 475 kts | 149° |
| 2026-04-21 21:22 | 16.32155 | -84.13415 | 35012 ft | 473 kts | 149° |
| 2026-04-21 21:22 | 16.26600 | -84.09726 | 35002 ft | 472 kts | 149° |
| 2026-04-21 21:23 | 16.21059 | -84.06053 | 35013 ft | 472 kts | 149° |
| 2026-04-21 21:23 | 16.15557 | -84.02408 | 35013 ft | 472 kts | 149° |
| 2026-04-21 21:24 | 16.10007 | -83.98732 | 35002 ft | 472 kts | 149° |
| 2026-04-21 21:24 | 16.04459 | -83.95061 | 34995 ft | 472 kts | 149° |
| 2026-04-21 21:25 | 15.98907 | -83.91391 | 35002 ft | 473 kts | 149° |
| 2026-04-21 21:25 | 15.93352 | -83.87716 | 35002 ft | 473 kts | 149° |
| 2026-04-21 21:26 | 15.87788 | -83.84040 | 34998 ft | 474 kts | 149° |
| 2026-04-21 21:26 | 15.82260 | -83.80391 | 34991 ft | 474 kts | 149° |
| 2026-04-21 21:27 | 15.76692 | -83.76718 | 34986 ft | 474 kts | 149° |
| 2026-04-21 21:27 | 15.71113 | -83.73042 | 34983 ft | 475 kts | 149° |
| 2026-04-21 21:28 | 15.65526 | -83.69362 | 34982 ft | 475 kts | 149° |
| 2026-04-21 21:29 | 15.57153 | -83.63849 | 34978 ft | 474 kts | 149° |
| 2026-04-21 21:29 | 15.51618 | -83.60211 | 34974 ft | 474 kts | 149° |
| 2026-04-21 21:30 | 15.46041 | -83.56546 | 34975 ft | 474 kts | 149° |
| 2026-04-21 21:30 | 15.40467 | -83.52883 | 34967 ft | 473 kts | 149° |
| 2026-04-21 21:31 | 15.34898 | -83.49228 | 34962 ft | 473 kts | 149° |
| 2026-04-21 21:31 | 15.29369 | -83.45601 | 34964 ft | 473 kts | 149° |
| 2026-04-21 21:32 | 15.23814 | -83.41958 | 34958 ft | 473 kts | 149° |
| 2026-04-21 21:32 | 15.18258 | -83.38318 | 34950 ft | 472 kts | 149° |
| 2026-04-21 21:33 | 15.12703 | -83.34681 | 34952 ft | 472 kts | 149° |
| 2026-04-21 21:33 | 15.07151 | -83.31048 | 34944 ft | 472 kts | 149° |
| 2026-04-21 21:34 | 15.01595 | -83.27415 | 34937 ft | 472 kts | 149° |
| 2026-04-21 21:34 | 14.96039 | -83.23784 | 34934 ft | 472 kts | 149° |
| 2026-04-21 21:35 | 14.90492 | -83.20157 | 34938 ft | 471 kts | 149° |
| 2026-04-21 21:35 | 14.84972 | -83.16556 | 34933 ft | 472 kts | 149° |
| 2026-04-21 21:36 | 14.79416 | -83.12934 | 34921 ft | 472 kts | 149° |
| 2026-04-21 21:36 | 14.73857 | -83.09310 | 34932 ft | 472 kts | 149° |
| 2026-04-21 21:37 | 14.68300 | -83.05688 | 34928 ft | 472 kts | 149° |
| 2026-04-21 21:37 | 14.62745 | -83.02072 | 34924 ft | 472 kts | 149° |
| 2026-04-21 21:38 | 14.57192 | -82.98455 | 34926 ft | 472 kts | 149° |
| 2026-04-21 21:38 | 14.51633 | -82.94840 | 34927 ft | 471 kts | 149° |
| 2026-04-21 21:39 | 14.46117 | -82.91256 | 34923 ft | 471 kts | 149° |
| 2026-04-21 21:39 | 14.40564 | -82.87648 | 34926 ft | 471 kts | 149° |
| 2026-04-21 21:40 | 14.35022 | -82.84052 | 34922 ft | 471 kts | 149° |
| 2026-04-21 21:40 | 14.29474 | -82.80451 | 34928 ft | 470 kts | 149° |
| 2026-04-21 21:41 | 14.23933 | -82.76858 | 34919 ft | 470 kts | 149° |
| 2026-04-21 21:41 | 14.18392 | -82.73268 | 34929 ft | 470 kts | 149° |
| 2026-04-21 21:42 | 14.12886 | -82.69703 | 34926 ft | 470 kts | 149° |
| 2026-04-21 21:42 | 14.07351 | -82.66118 | 34924 ft | 471 kts | 149° |
| 2026-04-21 21:43 | 14.01802 | -82.62528 | 34924 ft | 471 kts | 149° |
| 2026-04-21 21:43 | 13.96248 | -82.58932 | 34931 ft | 471 kts | 149° |
| 2026-04-21 21:44 | 13.90691 | -82.55339 | 34931 ft | 471 kts | 149° |
| 2026-04-21 21:44 | 13.85167 | -82.51777 | 34935 ft | 470 kts | 149° |
| 2026-04-21 21:45 | 13.79620 | -82.48208 | 34938 ft | 470 kts | 149° |
| 2026-04-21 21:45 | 13.74076 | -82.44645 | 34928 ft | 470 kts | 149° |
| 2026-04-21 21:46 | 13.68542 | -82.41081 | 34943 ft | 469 kts | 149° |
| 2026-04-21 21:46 | 13.63004 | -82.37517 | 34946 ft | 468 kts | 149° |
| 2026-04-21 21:47 | 13.57520 | -82.33990 | 34947 ft | 468 kts | 149° |
| 2026-04-21 21:47 | 13.51990 | -82.30436 | 34942 ft | 468 kts | 149° |
| 2026-04-21 21:48 | 13.46463 | -82.26886 | 34951 ft | 468 kts | 149° |
| 2026-04-21 21:48 | 13.40943 | -82.23342 | 34953 ft | 467 kts | 149° |
| 2026-04-21 21:49 | 13.35460 | -82.19824 | 34955 ft | 467 kts | 149° |
| 2026-04-21 21:49 | 13.29936 | -82.16281 | 34956 ft | 467 kts | 149° |
| 2026-04-21 21:50 | 13.24420 | -82.12745 | 34964 ft | 467 kts | 149° |
| 2026-04-21 21:50 | 13.18902 | -82.09211 | 34964 ft | 467 kts | 149° |
| 2026-04-21 21:51 | 13.13408 | -82.05692 | 34966 ft | 467 kts | 149° |
| 2026-04-21 21:51 | 13.07889 | -82.02162 | 34963 ft | 467 kts | 149° |
| 2026-04-21 21:52 | 13.02370 | -81.98632 | 34960 ft | 467 kts | 149° |
| 2026-04-21 21:52 | 12.96861 | -81.95110 | 34964 ft | 466 kts | 149° |
| 2026-04-21 21:53 | 12.91351 | -81.91590 | 34962 ft | 466 kts | 149° |
| 2026-04-21 21:53 | 12.85852 | -81.88078 | 34964 ft | 465 kts | 149° |
| 2026-04-21 21:54 | 12.80395 | -81.84594 | 34961 ft | 464 kts | 149° |
| 2026-04-21 21:54 | 12.74921 | -81.81100 | 34962 ft | 463 kts | 149° |
| 2026-04-21 21:55 | 12.69454 | -81.77613 | 34963 ft | 462 kts | 149° |
| 2026-04-21 21:55 | 12.64000 | -81.74136 | 34961 ft | 462 kts | 149° |
| 2026-04-21 21:56 | 12.58597 | -81.70591 | 34959 ft | 461 kts | 143° |
| 2026-04-21 21:56 | 12.53991 | -81.66026 | 34968 ft | 462 kts | 134° |
| 2026-04-21 21:57 | 12.49628 | -81.61203 | 34967 ft | 462 kts | 134° |
| 2026-04-21 21:57 | 12.45243 | -81.56383 | 34971 ft | 462 kts | 134° |
| 2026-04-21 21:58 | 12.41580 | -81.52397 | 34959 ft | 463 kts | 134° |
| 2026-04-21 21:58 | 12.36439 | -81.46827 | 34964 ft | 463 kts | 134° |
| 2026-04-21 21:59 | 12.32012 | -81.42040 | 34963 ft | 463 kts | 134° |
| 2026-04-21 21:59 | 12.28323 | -81.38052 | 34964 ft | 463 kts | 134° |
| 2026-04-21 22:00 | 12.23885 | -81.33254 | 34962 ft | 464 kts | 134° |
| 2026-04-21 22:00 | 12.19443 | -81.28456 | 34959 ft | 465 kts | 134° |
| 2026-04-21 22:01 | 12.15001 | -81.23660 | 34965 ft | 464 kts | 134° |
| 2026-04-21 22:01 | 12.10558 | -81.18865 | 34962 ft | 464 kts | 134° |
| 2026-04-21 22:02 | 12.06115 | -81.14074 | 34962 ft | 464 kts | 134° |
| 2026-04-21 22:02 | 12.01677 | -81.09288 | 34964 ft | 464 kts | 134° |
| 2026-04-21 22:03 | 11.97238 | -81.04502 | 34966 ft | 463 kts | 134° |
| 2026-04-21 22:03 | 11.92829 | -80.99752 | 34962 ft | 463 kts | 134° |
| 2026-04-21 22:04 | 11.88397 | -80.94984 | 34963 ft | 462 kts | 134° |
| 2026-04-21 22:04 | 11.83975 | -80.90224 | 34961 ft | 461 kts | 134° |
| 2026-04-21 22:05 | 11.79559 | -80.85474 | 34962 ft | 461 kts | 134° |
| 2026-04-21 22:05 | 11.75148 | -80.80733 | 34961 ft | 460 kts | 134° |
| 2026-04-21 22:06 | 11.70750 | -80.76009 | 34966 ft | 459 kts | 135° |
| 2026-04-21 22:06 | 11.66350 | -80.71283 | 34961 ft | 459 kts | 135° |
| 2026-04-21 22:07 | 11.61976 | -80.66588 | 34965 ft | 459 kts | 135° |
| 2026-04-21 22:07 | 11.57575 | -80.61866 | 34962 ft | 459 kts | 135° |
| 2026-04-21 22:08 | 11.53167 | -80.57140 | 34962 ft | 460 kts | 135° |
| 2026-04-21 22:08 | 11.48758 | -80.52415 | 34954 ft | 460 kts | 135° |
| 2026-04-21 22:09 | 11.44342 | -80.47685 | 34956 ft | 461 kts | 135° |
| 2026-04-21 22:09 | 11.39914 | -80.42943 | 34955 ft | 461 kts | 135° |
| 2026-04-21 22:10 | 11.35490 | -80.38209 | 34952 ft | 462 kts | 135° |
| 2026-04-21 22:10 | 11.31083 | -80.33493 | 34954 ft | 462 kts | 135° |
| 2026-04-21 22:11 | 11.26649 | -80.28751 | 34946 ft | 462 kts | 135° |
| 2026-04-21 22:11 | 11.22213 | -80.24010 | 34948 ft | 462 kts | 135° |
| 2026-04-21 22:12 | 11.17779 | -80.19276 | 34948 ft | 461 kts | 135° |
| 2026-04-21 22:12 | 11.13345 | -80.14544 | 34941 ft | 461 kts | 135° |
| 2026-04-21 22:13 | 11.08920 | -80.09821 | 34940 ft | 460 kts | 135° |
| 2026-04-21 22:13 | 11.04531 | -80.05138 | 34921 ft | 460 kts | 135° |
| 2026-04-21 22:14 | 11.00108 | -80.00423 | 34910 ft | 459 kts | 135° |
| 2026-04-21 22:14 | 10.95703 | -79.95727 | 34906 ft | 458 kts | 135° |
| 2026-04-21 22:15 | 10.91295 | -79.91032 | 34910 ft | 458 kts | 135° |
| 2026-04-21 22:15 | 10.86897 | -79.86353 | 34905 ft | 457 kts | 135° |
| 2026-04-21 22:16 | 10.82504 | -79.81675 | 34908 ft | 457 kts | 135° |
| 2026-04-21 22:16 | 10.78108 | -79.76997 | 34909 ft | 456 kts | 135° |
| 2026-04-21 22:17 | 10.73747 | -79.72359 | 34905 ft | 456 kts | 135° |
| 2026-04-21 22:17 | 10.69358 | -79.67694 | 34906 ft | 456 kts | 135° |
| 2026-04-21 22:18 | 10.64976 | -79.63038 | 34898 ft | 456 kts | 135° |
| 2026-04-21 22:18 | 10.60587 | -79.58376 | 34897 ft | 456 kts | 135° |
| 2026-04-21 22:19 | 10.56198 | -79.53714 | 34891 ft | 456 kts | 135° |
| 2026-04-21 22:19 | 10.51810 | -79.49061 | 34890 ft | 456 kts | 135° |
| 2026-04-21 22:20 | 10.47406 | -79.44476 | 34898 ft | 456 kts | 136° |
| 2026-04-21 22:20 | 10.42961 | -79.39877 | 34898 ft | 456 kts | 136° |
| 2026-04-21 22:21 | 10.38520 | -79.35275 | 34892 ft | 456 kts | 136° |
| 2026-04-21 22:21 | 10.34082 | -79.30669 | 34889 ft | 456 kts | 136° |
| 2026-04-21 22:22 | 10.29641 | -79.26057 | 34893 ft | 456 kts | 136° |
| 2026-04-21 22:22 | 10.25198 | -79.21445 | 34887 ft | 456 kts | 136° |
| 2026-04-21 22:23 | 10.20754 | -79.16835 | 34889 ft | 456 kts | 136° |
| 2026-04-21 22:23 | 10.16306 | -79.12223 | 34889 ft | 456 kts | 136° |
| 2026-04-21 22:24 | 10.11866 | -79.07620 | 34889 ft | 456 kts | 136° |
| 2026-04-21 22:24 | 10.07456 | -79.03051 | 34888 ft | 456 kts | 136° |
| 2026-04-21 22:25 | 10.03014 | -78.98451 | 34888 ft | 455 kts | 136° |
| 2026-04-21 22:25 | 9.98582 | -78.93864 | 34887 ft | 454 kts | 136° |
| 2026-04-21 22:26 | 9.94162 | -78.89289 | 34889 ft | 454 kts | 136° |
| 2026-04-21 22:26 | 9.89744 | -78.84723 | 34888 ft | 453 kts | 136° |
| 2026-04-21 22:27 | 9.85339 | -78.80167 | 34890 ft | 452 kts | 136° |
| 2026-04-21 22:27 | 9.80969 | -78.75649 | 34888 ft | 451 kts | 136° |
| 2026-04-21 22:28 | 9.76544 | -78.71078 | 34888 ft | 451 kts | 136° |
| 2026-04-21 22:28 | 9.72181 | -78.66573 | 34888 ft | 451 kts | 136° |
| 2026-04-21 22:29 | 9.67792 | -78.62041 | 34889 ft | 450 kts | 136° |
| 2026-04-21 22:29 | 9.63393 | -78.57503 | 34892 ft | 450 kts | 136° |
| 2026-04-21 22:30 | 9.59006 | -78.52978 | 34889 ft | 450 kts | 136° |
| 2026-04-21 22:30 | 9.54616 | -78.48449 | 34889 ft | 450 kts | 136° |
| 2026-04-21 22:31 | 9.50221 | -78.43919 | 34890 ft | 451 kts | 136° |
| 2026-04-21 22:31 | 9.45820 | -78.39386 | 34892 ft | 451 kts | 136° |
| 2026-04-21 22:32 | 9.41439 | -78.34873 | 34889 ft | 452 kts | 136° |
| 2026-04-21 22:32 | 9.37006 | -78.30306 | 34889 ft | 452 kts | 136° |
| 2026-04-21 22:33 | 9.32627 | -78.25796 | 34889 ft | 452 kts | 136° |
| 2026-04-21 22:33 | 9.28218 | -78.21258 | 34887 ft | 451 kts | 136° |
| 2026-04-21 22:34 | 9.23858 | -78.16673 | 34894 ft | 452 kts | 135° |
| 2026-04-21 22:34 | 9.19575 | -78.11985 | 34890 ft | 453 kts | 134° |
| 2026-04-21 22:35 | 9.15304 | -78.07301 | 34889 ft | 453 kts | 134° |
| 2026-04-21 22:35 | 9.11021 | -78.02628 | 34888 ft | 452 kts | 134° |
| 2026-04-21 22:36 | 9.04617 | -77.95665 | 34889 ft | 452 kts | 134° |
| 2026-04-21 22:36 | 9.00325 | -77.91001 | 34893 ft | 453 kts | 134° |
| 2026-04-21 22:37 | 8.96031 | -77.86335 | 34883 ft | 453 kts | 134° |
| 2026-04-21 22:37 | 8.91730 | -77.81666 | 34878 ft | 453 kts | 134° |
| 2026-04-21 22:38 | 8.87431 | -77.76998 | 34887 ft | 453 kts | 134° |
| 2026-04-21 22:38 | 8.83134 | -77.72333 | 34884 ft | 453 kts | 134° |
| 2026-04-21 22:39 | 8.78832 | -77.67665 | 34884 ft | 453 kts | 134° |
| 2026-04-21 22:39 | 8.74527 | -77.62995 | 34879 ft | 453 kts | 134° |
| 2026-04-21 22:40 | 8.70248 | -77.58355 | 34880 ft | 453 kts | 134° |
| 2026-04-21 22:40 | 8.65945 | -77.53690 | 34878 ft | 453 kts | 134° |
| 2026-04-21 22:41 | 8.61644 | -77.49028 | 34882 ft | 453 kts | 134° |
| 2026-04-21 22:41 | 8.57340 | -77.44366 | 34872 ft | 453 kts | 134° |
| 2026-04-21 22:42 | 8.52992 | -77.39769 | 34878 ft | 452 kts | 137° |
| 2026-04-21 22:42 | 8.48422 | -77.35409 | 34880 ft | 452 kts | 138° |
| 2026-04-21 22:43 | 8.43806 | -77.31086 | 34881 ft | 453 kts | 138° |
| 2026-04-21 22:43 | 8.39208 | -77.26741 | 34878 ft | 453 kts | 138° |
| 2026-04-21 22:44 | 8.35395 | -77.23111 | 34881 ft | 453 kts | 138° |
| 2026-04-21 22:44 | 8.30805 | -77.18736 | 34882 ft | 454 kts | 138° |
| 2026-04-21 22:45 | 8.26214 | -77.14360 | 34878 ft | 454 kts | 138° |
| 2026-04-21 22:45 | 8.21619 | -77.09983 | 34876 ft | 454 kts | 138° |
| 2026-04-21 22:46 | 8.17026 | -77.05608 | 34881 ft | 453 kts | 138° |
| 2026-04-21 22:46 | 8.12458 | -77.01262 | 34880 ft | 453 kts | 138° |
| 2026-04-21 22:47 | 8.07874 | -76.96898 | 34878 ft | 453 kts | 138° |
| 2026-04-21 22:47 | 8.03282 | -76.92530 | 34882 ft | 453 kts | 138° |
| 2026-04-21 22:48 | 7.98695 | -76.88171 | 34875 ft | 453 kts | 138° |
| 2026-04-21 22:48 | 7.94108 | -76.83809 | 34881 ft | 453 kts | 137° |
| 2026-04-21 22:49 | 7.89513 | -76.79440 | 34881 ft | 454 kts | 138° |
| 2026-04-21 22:49 | 7.84917 | -76.75072 | 34891 ft | 454 kts | 138° |
| 2026-04-21 22:50 | 7.80193 | -76.70835 | 34888 ft | 454 kts | 144° |
| 2026-04-21 22:50 | 7.75032 | -76.67173 | 34892 ft | 454 kts | 146° |
| 2026-04-21 22:51 | 7.69841 | -76.63595 | 34893 ft | 455 kts | 146° |
| 2026-04-21 22:51 | 7.64633 | -76.59940 | 34888 ft | 456 kts | 146° |
| 2026-04-21 22:52 | 7.59451 | -76.56261 | 34889 ft | 456 kts | 146° |
| 2026-04-21 22:52 | 7.54263 | -76.52571 | 34887 ft | 456 kts | 146° |
| 2026-04-21 22:53 | 7.49078 | -76.48887 | 34877 ft | 456 kts | 146° |
| 2026-04-21 22:53 | 7.43924 | -76.45230 | 34897 ft | 455 kts | 146° |
| 2026-04-21 22:54 | 7.38740 | -76.41548 | 34901 ft | 456 kts | 146° |
| 2026-04-21 22:54 | 7.33558 | -76.37867 | 34904 ft | 455 kts | 146° |
| 2026-04-21 22:55 | 7.28378 | -76.34189 | 34914 ft | 456 kts | 146° |
| 2026-04-21 22:55 | 7.23189 | -76.30508 | 34921 ft | 456 kts | 146° |
| 2026-04-21 22:56 | 7.18006 | -76.26828 | 34918 ft | 455 kts | 146° |
| 2026-04-21 22:56 | 7.12856 | -76.23163 | 34933 ft | 455 kts | 145° |
| 2026-04-21 22:57 | 7.07693 | -76.19488 | 34932 ft | 454 kts | 145° |
| 2026-04-21 22:57 | 7.02522 | -76.15808 | 34941 ft | 454 kts | 145° |
| 2026-04-21 22:58 | 6.97353 | -76.12136 | 34957 ft | 456 kts | 146° |
| 2026-04-21 22:58 | 6.92205 | -76.08434 | 34963 ft | 453 kts | 147° |
| 2026-04-21 22:59 | 6.87056 | -76.04837 | 34982 ft | 453 kts | 145° |
| 2026-04-21 22:59 | 6.84490 | -76.02973 | 34479 ft | 459 kts | 145° |
| 2026-04-21 22:59 | 6.81851 | -76.01105 | 33804 ft | 463 kts | 146° |
| 2026-04-21 23:00 | 6.79199 | -75.99263 | 32956 ft | 464 kts | 144° |
| 2026-04-21 23:00 | 6.76584 | -75.97349 | 32145 ft | 465 kts | 145° |
| 2026-04-21 23:00 | 6.73958 | -75.95444 | 31260 ft | 466 kts | 142° |
| 2026-04-21 23:00 | 6.71655 | -75.93157 | 30642 ft | 462 kts | 131° |
| 2026-04-21 23:01 | 6.69598 | -75.90677 | 30031 ft | 459 kts | 129° |
| 2026-04-21 23:01 | 6.67618 | -75.88177 | 29415 ft | 455 kts | 129° |
| 2026-04-21 23:01 | 6.65661 | -75.85697 | 28817 ft | 449 kts | 129° |
| 2026-04-21 23:01 | 6.63683 | -75.83287 | 28215 ft | 446 kts | 130° |
| 2026-04-21 23:02 | 6.61719 | -75.80894 | 27633 ft | 443 kts | 129° |
| 2026-04-21 23:02 | 6.59801 | -75.78530 | 27062 ft | 439 kts | 129° |
| 2026-04-21 23:02 | 6.57873 | -75.76158 | 26477 ft | 435 kts | 130° |
| 2026-04-21 23:02 | 6.55955 | -75.73814 | 25899 ft | 432 kts | 130° |
| 2026-04-21 23:03 | 6.54049 | -75.71495 | 25330 ft | 429 kts | 130° |
| 2026-04-21 23:03 | 6.52146 | -75.69188 | 24767 ft | 426 kts | 130° |
| 2026-04-21 23:03 | 6.50258 | -75.66900 | 24185 ft | 423 kts | 130° |
| 2026-04-21 23:03 | 6.48407 | -75.64658 | 23635 ft | 419 kts | 130° |
| 2026-04-21 23:04 | 6.46548 | -75.62407 | 23073 ft | 416 kts | 130° |
| 2026-04-21 23:04 | 6.44704 | -75.60174 | 22517 ft | 413 kts | 130° |
| 2026-04-21 23:04 | 6.42871 | -75.57956 | 21961 ft | 410 kts | 130° |
| 2026-04-21 23:04 | 6.40928 | -75.55870 | 21389 ft | 407 kts | 143° |
| 2026-04-21 23:05 | 6.38468 | -75.54533 | 20930 ft | 400 kts | 161° |
| 2026-04-21 23:05 | 6.35765 | -75.53970 | 20384 ft | 396 kts | 177° |
| 2026-04-21 23:05 | 6.33020 | -75.53903 | 19880 ft | 393 kts | 180° |
| 2026-04-21 23:05 | 6.30289 | -75.53894 | 19332 ft | 391 kts | 180° |
| 2026-04-21 23:06 | 6.27576 | -75.53887 | 18798 ft | 389 kts | 180° |
| 2026-04-21 23:06 | 6.24910 | -75.53866 | 18277 ft | 386 kts | 180° |
| 2026-04-21 23:06 | 6.22229 | -75.53830 | 17750 ft | 384 kts | 179° |
| 2026-04-21 23:06 | 6.19559 | -75.53785 | 17223 ft | 382 kts | 179° |
| 2026-04-21 23:07 | 6.16905 | -75.53738 | 16712 ft | 379 kts | 180° |
| 2026-04-21 23:07 | 6.14274 | -75.53691 | 16194 ft | 377 kts | 180° |
| 2026-04-21 23:07 | 6.11663 | -75.53650 | 15697 ft | 374 kts | 180° |
| 2026-04-21 23:07 | 6.09054 | -75.53660 | 15069 ft | 375 kts | 181° |
| 2026-04-21 23:08 | 6.06490 | -75.53694 | 14851 ft | 364 kts | 182° |
| 2026-04-21 23:08 | 6.04000 | -75.53727 | 14696 ft | 351 kts | 181° |
| 2026-04-21 23:08 | 6.01619 | -75.53754 | 14461 ft | 343 kts | 181° |
| 2026-04-21 23:08 | 5.99250 | -75.53777 | 14203 ft | 335 kts | 181° |
| 2026-04-21 23:09 | 5.96950 | -75.53798 | 14041 ft | 325 kts | 182° |
| 2026-04-21 23:09 | 5.94718 | -75.53819 | 13899 ft | 316 kts | 182° |
| 2026-04-21 23:09 | 5.92551 | -75.53836 | 13768 ft | 307 kts | 180° |
| 2026-04-21 23:09 | 5.90493 | -75.53437 | 13635 ft | 299 kts | 155° |
| 2026-04-21 23:10 | 5.88853 | -75.52218 | 13496 ft | 293 kts | 131° |
| 2026-04-21 23:10 | 5.87846 | -75.50485 | 13361 ft | 281 kts | 110° |
| 2026-04-21 23:10 | 5.87487 | -75.48617 | 13242 ft | 267 kts | 91° |
| 2026-04-21 23:10 | 5.87481 | -75.46807 | 13154 ft | 253 kts | 90° |
| 2026-04-21 23:11 | 5.87507 | -75.45071 | 12952 ft | 245 kts | 86° |
| 2026-04-21 23:11 | 5.87976 | -75.43473 | 12502 ft | 243 kts | 51° |
| 2026-04-21 23:11 | 5.89319 | -75.42528 | 12094 ft | 238 kts | 14° |
| 2026-04-21 23:11 | 5.90922 | -75.42236 | 12024 ft | 233 kts | 3° |
| 2026-04-21 23:12 | 5.92553 | -75.42155 | 11779 ft | 240 kts | 359° |
| 2026-04-21 23:12 | 5.94271 | -75.42155 | 11166 ft | 251 kts | 358° |
| 2026-04-21 23:12 | 5.96018 | -75.42207 | 10654 ft | 251 kts | 360° |
| 2026-04-21 23:12 | 5.97744 | -75.42165 | 10291 ft | 245 kts | 0° |
| 2026-04-21 23:13 | 5.99403 | -75.42189 | 9969 ft | 232 kts | 359° |
| 2026-04-21 23:13 | 6.00969 | -75.42212 | 9686 ft | 219 kts | 359° |
| 2026-04-21 23:13 | 6.02454 | -75.42223 | 9398 ft | 208 kts | 359° |
| 2026-04-21 23:13 | 6.03852 | -75.42205 | 9111 ft | 196 kts | 0° |
| 2026-04-21 23:14 | 6.05185 | -75.42227 | 8863 ft | 188 kts | 359° |
| 2026-04-21 23:14 | 6.06468 | -75.42244 | 8670 ft | 180 kts | 0° |
| 2026-04-21 23:14 | 6.07740 | -75.42254 | 8398 ft | 181 kts | 0° |
| 2026-04-21 23:14 | 6.08964 | -75.42264 | 8150 ft | 177 kts | 0° |
| 2026-04-21 23:15 | 6.10187 | -75.42270 | 7917 ft | 175 kts | 0° |
| 2026-04-21 23:15 | 6.11398 | -75.42278 | 7685 ft | 173 kts | 0° |
| 2026-04-21 23:15 | 6.12611 | -75.42286 | 7463 ft | 175 kts | 0° |
| 2026-04-21 23:15 | 6.13825 | -75.42291 | 7222 ft | 173 kts | 360° |
| 2026-04-21 23:16 | 6.15024 | -75.42301 | 6969 ft | 170 kts | 2° |
| 2026-04-21 23:16 | 6.16099 | -75.42303 | 6966 ft | 134 kts | 359° |
| 2026-04-21 23:16 | 6.16884 | -75.42307 | 6979 ft | 96 kts | 360° |
| 2026-04-21 23:16 | 6.17460 | -75.42316 | 6995 ft | 48 kts | 360° |
| 2026-04-21 23:17 | 6.17570 | -75.42376 | 6991 ft | 15 kts | 261° |
| 2026-04-21 23:17 | 6.17565 | -75.42457 | 6993 ft | 0 kts | 269° |
| 2026-04-21 23:18 | 6.17565 | -75.42458 | 6996 ft | 1 kts | 269° |
| 2026-04-21 23:18 | 6.17558 | -75.42485 | 6989 ft | 7 kts | 245° |
| 2026-04-21 23:18 | 6.17507 | -75.42531 | 6995 ft | 13 kts | 215° |
| 2026-04-21 23:18 | 6.17420 | -75.42591 | 6993 ft | 16 kts | 216° |
| 2026-04-21 23:19 | 6.17347 | -75.42637 | 6990 ft | 10 kts | 215° |
| 2026-04-21 23:19 | 6.17319 | -75.42659 | 6991 ft | 0 kts | 225° |
| 2026-04-21 23:19 | 6.17318 | -75.42660 | 6991 ft | 1 kts | 220° |
| 2026-04-21 23:19 | 6.17307 | -75.42654 | 6991 ft | 4 kts | 141° |
| 2026-04-21 23:20 | 6.17263 | -75.42624 | 6988 ft | 11 kts | 164° |
| 2026-04-21 23:20 | 6.17190 | -75.42621 | 6982 ft | 10 kts | 177° |
| 2026-04-21 23:20 | 6.17153 | -75.42622 | 6988 ft | 3 kts | 203° |
| 2026-04-21 23:20 | 6.17143 | -75.42637 | 6988 ft | 3 kts | 249° |
| 2026-04-21 23:21 | 6.17140 | -75.42654 | 6988 ft | 2 kts | 262° |
| 2026-04-21 23:21 | 6.17138 | -75.42670 | 6988 ft | 2 kts | 264° |
| 2026-04-21 23:21 | 6.17138 | -75.42679 | 6988 ft | 0 kts | 265° |